sensor_id;sensor_type;location;lat;lon;timestamp;P1;durP1;ratioP1;P2;durP2;ratioP2
9821;SDS011;4950;46.042;14.472;2023-09-18T00:00:19;10.27;;;6.57;;
9821;SDS011;4950;46.042;14.472;2023-09-18T00:02:46;10.02;;;7.10;;
9821;SDS011;4950;46.042;14.472;2023-09-18T00:05:15;11.60;;;6.78;;
9821;SDS011;4950;46.042;14.472;2023-09-18T00:07:42;11.43;;;7.30;;
9821;SDS011;4950;46.042;14.472;2023-09-18T00:10:09;12.25;;;7.03;;
9821;SDS011;4950;46.042;14.472;2023-09-18T00:12:36;10.80;;;7.18;;
9821;SDS011;4950;46.042;14.472;2023-09-18T00:15:04;10.63;;;6.97;;
9821;SDS011;4950;46.042;14.472;2023-09-18T00:17:33;8.73;;;6.55;;
9821;SDS011;4950;46.042;14.472;2023-09-18T00:20:00;11.32;;;6.50;;
9821;SDS011;4950;46.042;14.472;2023-09-18T00:22:29;9.40;;;6.85;;
9821;SDS011;4950;46.042;14.472;2023-09-18T00:24:56;8.87;;;6.33;;
9821;SDS011;4950;46.042;14.472;2023-09-18T00:27:23;8.85;;;6.82;;
9821;SDS011;4950;46.042;14.472;2023-09-18T00:29:49;11.88;;;6.82;;
9821;SDS011;4950;46.042;14.472;2023-09-18T00:32:16;9.43;;;7.10;;
9821;SDS011;4950;46.042;14.472;2023-09-18T00:34:43;9.18;;;7.40;;
9821;SDS011;4950;46.042;14.472;2023-09-18T00:37:10;11.35;;;8.30;;
9821;SDS011;4950;46.042;14.472;2023-09-18T00:39:38;10.07;;;7.10;;
9821;SDS011;4950;46.042;14.472;2023-09-18T00:42:05;8.70;;;6.75;;
9821;SDS011;4950;46.042;14.472;2023-09-18T00:44:32;11.23;;;7.78;;
9821;SDS011;4950;46.042;14.472;2023-09-18T00:46:59;12.48;;;7.53;;
9821;SDS011;4950;46.042;14.472;2023-09-18T00:49:26;11.35;;;7.70;;
9821;SDS011;4950;46.042;14.472;2023-09-18T00:51:52;9.05;;;6.82;;
9821;SDS011;4950;46.042;14.472;2023-09-18T00:54:20;10.90;;;7.85;;
9821;SDS011;4950;46.042;14.472;2023-09-18T00:56:49;13.20;;;6.90;;
9821;SDS011;4950;46.042;14.472;2023-09-18T00:59:19;15.43;;;8.43;;
9821;SDS011;4950;46.042;14.472;2023-09-18T01:01:46;11.98;;;8.30;;
9821;SDS011;4950;46.042;14.472;2023-09-18T01:04:14;10.25;;;7.18;;
9821;SDS011;4950;46.042;14.472;2023-09-18T01:06:41;11.25;;;8.32;;
9821;SDS011;4950;46.042;14.472;2023-09-18T01:09:08;10.25;;;7.93;;
9821;SDS011;4950;46.042;14.472;2023-09-18T01:11:42;12.68;;;8.25;;
9821;SDS011;4950;46.042;14.472;2023-09-18T01:14:16;13.13;;;7.82;;
9821;SDS011;4950;46.042;14.472;2023-09-18T01:16:48;12.05;;;8.07;;
9821;SDS011;4950;46.042;14.472;2023-09-18T01:19:34;10.88;;;8.18;;
9821;SDS011;4950;46.042;14.472;2023-09-18T01:22:01;10.30;;;7.65;;
9821;SDS011;4950;46.042;14.472;2023-09-18T01:24:30;10.93;;;8.32;;
9821;SDS011;4950;46.042;14.472;2023-09-18T01:26:57;12.57;;;7.65;;
9821;SDS011;4950;46.042;14.472;2023-09-18T01:29:24;9.52;;;6.80;;
9821;SDS011;4950;46.042;14.472;2023-09-18T01:31:51;10.32;;;7.57;;
9821;SDS011;4950;46.042;14.472;2023-09-18T01:34:18;10.30;;;7.45;;
9821;SDS011;4950;46.042;14.472;2023-09-18T01:36:46;11.82;;;7.82;;
9821;SDS011;4950;46.042;14.472;2023-09-18T01:39:13;11.85;;;7.53;;
9821;SDS011;4950;46.042;14.472;2023-09-18T01:41:43;11.98;;;8.27;;
9821;SDS011;4950;46.042;14.472;2023-09-18T01:44:10;11.30;;;7.82;;
9821;SDS011;4950;46.042;14.472;2023-09-18T01:46:37;13.07;;;7.28;;
9821;SDS011;4950;46.042;14.472;2023-09-18T01:49:05;12.38;;;8.07;;
9821;SDS011;4950;46.042;14.472;2023-09-18T01:51:31;10.38;;;7.70;;
9821;SDS011;4950;46.042;14.472;2023-09-18T01:53:58;11.65;;;7.85;;
9821;SDS011;4950;46.042;14.472;2023-09-18T01:56:25;17.05;;;7.32;;
9821;SDS011;4950;46.042;14.472;2023-09-18T01:58:53;13.38;;;8.23;;
9821;SDS011;4950;46.042;14.472;2023-09-18T02:01:20;13.10;;;8.40;;
9821;SDS011;4950;46.042;14.472;2023-09-18T02:03:46;11.50;;;8.05;;
9821;SDS011;4950;46.042;14.472;2023-09-18T02:06:13;11.40;;;8.25;;
9821;SDS011;4950;46.042;14.472;2023-09-18T02:08:40;13.02;;;9.07;;
9821;SDS011;4950;46.042;14.472;2023-09-18T02:11:07;13.88;;;8.10;;
9821;SDS011;4950;46.042;14.472;2023-09-18T02:13:33;13.18;;;7.93;;
9821;SDS011;4950;46.042;14.472;2023-09-18T02:16:01;11.32;;;8.00;;
9821;SDS011;4950;46.042;14.472;2023-09-18T02:18:28;9.25;;;7.28;;
9821;SDS011;4950;46.042;14.472;2023-09-18T02:20:55;10.45;;;6.78;;
9821;SDS011;4950;46.042;14.472;2023-09-18T02:23:22;10.23;;;7.07;;
9821;SDS011;4950;46.042;14.472;2023-09-18T02:25:55;11.13;;;6.78;;
9821;SDS011;4950;46.042;14.472;2023-09-18T02:28:22;10.25;;;7.45;;
9821;SDS011;4950;46.042;14.472;2023-09-18T02:30:49;11.60;;;7.18;;
9821;SDS011;4950;46.042;14.472;2023-09-18T02:33:17;10.75;;;7.43;;
9821;SDS011;4950;46.042;14.472;2023-09-18T02:35:44;13.95;;;7.95;;
9821;SDS011;4950;46.042;14.472;2023-09-18T02:38:10;10.35;;;7.22;;
9821;SDS011;4950;46.042;14.472;2023-09-18T02:40:37;10.68;;;7.70;;
9821;SDS011;4950;46.042;14.472;2023-09-18T02:43:04;10.23;;;7.13;;
9821;SDS011;4950;46.042;14.472;2023-09-18T02:45:31;10.95;;;8.05;;
9821;SDS011;4950;46.042;14.472;2023-09-18T02:47:58;10.48;;;8.05;;
9821;SDS011;4950;46.042;14.472;2023-09-18T02:50:26;14.35;;;7.80;;
9821;SDS011;4950;46.042;14.472;2023-09-18T02:52:53;16.70;;;9.05;;
9821;SDS011;4950;46.042;14.472;2023-09-18T02:55:19;12.95;;;8.52;;
9821;SDS011;4950;46.042;14.472;2023-09-18T02:57:47;11.35;;;7.60;;
9821;SDS011;4950;46.042;14.472;2023-09-18T03:00:13;13.27;;;8.10;;
9821;SDS011;4950;46.042;14.472;2023-09-18T03:02:40;11.65;;;7.72;;
9821;SDS011;4950;46.042;14.472;2023-09-18T03:05:08;12.80;;;8.15;;
9821;SDS011;4950;46.042;14.472;2023-09-18T03:07:36;11.25;;;7.90;;
9821;SDS011;4950;46.042;14.472;2023-09-18T03:10:03;11.80;;;7.85;;
9821;SDS011;4950;46.042;14.472;2023-09-18T03:12:31;11.75;;;7.85;;
9821;SDS011;4950;46.042;14.472;2023-09-18T03:14:58;14.05;;;7.78;;
9821;SDS011;4950;46.042;14.472;2023-09-18T03:17:25;11.98;;;7.72;;
9821;SDS011;4950;46.042;14.472;2023-09-18T03:19:52;11.38;;;7.88;;
9821;SDS011;4950;46.042;14.472;2023-09-18T03:22:19;10.05;;;7.55;;
9821;SDS011;4950;46.042;14.472;2023-09-18T03:24:47;11.15;;;7.55;;
9821;SDS011;4950;46.042;14.472;2023-09-18T03:27:14;11.83;;;8.20;;
9821;SDS011;4950;46.042;14.472;2023-09-18T03:29:41;11.88;;;8.05;;
9821;SDS011;4950;46.042;14.472;2023-09-18T03:32:07;8.95;;;7.30;;
9821;SDS011;4950;46.042;14.472;2023-09-18T03:34:37;10.15;;;8.20;;
9821;SDS011;4950;46.042;14.472;2023-09-18T03:37:04;13.40;;;8.40;;
9821;SDS011;4950;46.042;14.472;2023-09-18T03:39:30;9.93;;;8.55;;
9821;SDS011;4950;46.042;14.472;2023-09-18T03:41:59;10.93;;;8.20;;
9821;SDS011;4950;46.042;14.472;2023-09-18T03:44:25;11.65;;;8.52;;
9821;SDS011;4950;46.042;14.472;2023-09-18T03:46:52;10.95;;;7.90;;
9821;SDS011;4950;46.042;14.472;2023-09-18T03:49:19;17.40;;;8.32;;
9821;SDS011;4950;46.042;14.472;2023-09-18T03:51:46;10.35;;;8.15;;
9821;SDS011;4950;46.042;14.472;2023-09-18T03:54:13;11.32;;;8.88;;
9821;SDS011;4950;46.042;14.472;2023-09-18T03:56:40;11.20;;;8.65;;
9821;SDS011;4950;46.042;14.472;2023-09-18T03:59:08;10.93;;;8.63;;
9821;SDS011;4950;46.042;14.472;2023-09-18T04:01:35;13.47;;;9.17;;
9821;SDS011;4950;46.042;14.472;2023-09-18T04:04:01;12.25;;;9.15;;
9821;SDS011;4950;46.042;14.472;2023-09-18T04:06:35;12.48;;;8.55;;
9821;SDS011;4950;46.042;14.472;2023-09-18T04:09:03;14.48;;;9.68;;
9821;SDS011;4950;46.042;14.472;2023-09-18T04:11:30;12.55;;;8.65;;
9821;SDS011;4950;46.042;14.472;2023-09-18T04:13:57;12.98;;;8.95;;
9821;SDS011;4950;46.042;14.472;2023-09-18T04:16:26;17.88;;;9.18;;
9821;SDS011;4950;46.042;14.472;2023-09-18T04:18:53;12.25;;;9.75;;
9821;SDS011;4950;46.042;14.472;2023-09-18T04:21:20;11.52;;;9.30;;
9821;SDS011;4950;46.042;14.472;2023-09-18T04:23:47;11.90;;;9.50;;
9821;SDS011;4950;46.042;14.472;2023-09-18T04:26:20;13.85;;;10.38;;
9821;SDS011;4950;46.042;14.472;2023-09-18T04:28:47;12.88;;;9.70;;
9821;SDS011;4950;46.042;14.472;2023-09-18T04:31:14;14.90;;;11.10;;
9821;SDS011;4950;46.042;14.472;2023-09-18T04:33:42;15.95;;;11.23;;
9821;SDS011;4950;46.042;14.472;2023-09-18T04:36:10;21.13;;;10.88;;
9821;SDS011;4950;46.042;14.472;2023-09-18T04:38:37;16.73;;;10.48;;
9821;SDS011;4950;46.042;14.472;2023-09-18T04:41:03;12.45;;;10.13;;
9821;SDS011;4950;46.042;14.472;2023-09-18T04:43:32;13.37;;;10.50;;
9821;SDS011;4950;46.042;14.472;2023-09-18T04:46:00;15.07;;;11.45;;
9821;SDS011;4950;46.042;14.472;2023-09-18T04:48:27;16.63;;;10.93;;
9821;SDS011;4950;46.042;14.472;2023-09-18T04:50:56;14.68;;;10.18;;
9821;SDS011;4950;46.042;14.472;2023-09-18T04:53:23;19.80;;;11.65;;
9821;SDS011;4950;46.042;14.472;2023-09-18T04:55:50;28.42;;;11.30;;
9821;SDS011;4950;46.042;14.472;2023-09-18T04:58:17;14.93;;;10.93;;
9821;SDS011;4950;46.042;14.472;2023-09-18T05:00:44;16.98;;;10.85;;
9821;SDS011;4950;46.042;14.472;2023-09-18T05:03:11;13.98;;;10.48;;
9821;SDS011;4950;46.042;14.472;2023-09-18T05:05:38;15.77;;;11.75;;
9821;SDS011;4950;46.042;14.472;2023-09-18T05:08:07;14.40;;;10.60;;
9821;SDS011;4950;46.042;14.472;2023-09-18T05:10:33;17.77;;;11.73;;
9821;SDS011;4950;46.042;14.472;2023-09-18T05:13:00;14.98;;;11.15;;
9821;SDS011;4950;46.042;14.472;2023-09-18T05:15:27;15.85;;;12.10;;
9821;SDS011;4950;46.042;14.472;2023-09-18T05:17:55;17.85;;;11.75;;
9821;SDS011;4950;46.042;14.472;2023-09-18T05:20:23;15.90;;;12.37;;
9821;SDS011;4950;46.042;14.472;2023-09-18T05:22:51;17.20;;;11.65;;
9821;SDS011;4950;46.042;14.472;2023-09-18T05:25:20;24.45;;;12.40;;
9821;SDS011;4950;46.042;14.472;2023-09-18T05:27:48;22.25;;;14.02;;
9821;SDS011;4950;46.042;14.472;2023-09-18T05:30:23;15.95;;;11.52;;
9821;SDS011;4950;46.042;14.472;2023-09-18T05:32:53;19.85;;;13.63;;
9821;SDS011;4950;46.042;14.472;2023-09-18T05:35:20;18.23;;;12.43;;
9821;SDS011;4950;46.042;14.472;2023-09-18T05:37:48;20.52;;;13.15;;
9821;SDS011;4950;46.042;14.472;2023-09-18T05:40:15;15.98;;;11.80;;
9821;SDS011;4950;46.042;14.472;2023-09-18T05:42:44;17.27;;;12.45;;
9821;SDS011;4950;46.042;14.472;2023-09-18T05:45:10;18.97;;;12.23;;
9821;SDS011;4950;46.042;14.472;2023-09-18T05:47:38;16.48;;;11.57;;
9821;SDS011;4950;46.042;14.472;2023-09-18T05:50:05;15.63;;;10.98;;
9821;SDS011;4950;46.042;14.472;2023-09-18T05:52:35;16.95;;;13.30;;
9821;SDS011;4950;46.042;14.472;2023-09-18T05:57:29;16.33;;;12.40;;
9821;SDS011;4950;46.042;14.472;2023-09-18T05:59:57;17.60;;;12.07;;
9821;SDS011;4950;46.042;14.472;2023-09-18T06:02:24;19.27;;;12.43;;
9821;SDS011;4950;46.042;14.472;2023-09-18T06:04:54;15.85;;;12.38;;
9821;SDS011;4950;46.042;14.472;2023-09-18T06:07:22;17.15;;;11.68;;
9821;SDS011;4950;46.042;14.472;2023-09-18T06:09:50;15.98;;;11.88;;
9821;SDS011;4950;46.042;14.472;2023-09-18T06:12:17;17.77;;;12.40;;
9821;SDS011;4950;46.042;14.472;2023-09-18T06:14:43;19.70;;;11.80;;
9821;SDS011;4950;46.042;14.472;2023-09-18T06:17:13;15.77;;;11.77;;
9821;SDS011;4950;46.042;14.472;2023-09-18T06:19:40;16.88;;;11.10;;
9821;SDS011;4950;46.042;14.472;2023-09-18T06:22:07;14.90;;;10.55;;
9821;SDS011;4950;46.042;14.472;2023-09-18T06:24:34;18.80;;;11.90;;
9821;SDS011;4950;46.042;14.472;2023-09-18T06:27:01;15.45;;;11.43;;
9821;SDS011;4950;46.042;14.472;2023-09-18T06:29:29;13.57;;;10.13;;
9821;SDS011;4950;46.042;14.472;2023-09-18T06:31:56;15.45;;;10.65;;
9821;SDS011;4950;46.042;14.472;2023-09-18T06:34:24;14.82;;;10.25;;
9821;SDS011;4950;46.042;14.472;2023-09-18T06:36:51;14.30;;;10.02;;
9821;SDS011;4950;46.042;14.472;2023-09-18T06:39:18;16.88;;;11.02;;
9821;SDS011;4950;46.042;14.472;2023-09-18T06:41:45;15.10;;;10.57;;
9821;SDS011;4950;46.042;14.472;2023-09-18T06:44:12;17.27;;;10.05;;
9821;SDS011;4950;46.042;14.472;2023-09-18T06:46:38;15.23;;;10.82;;
9821;SDS011;4950;46.042;14.472;2023-09-18T06:49:05;14.48;;;11.30;;
9821;SDS011;4950;46.042;14.472;2023-09-18T06:51:34;14.45;;;10.48;;
9821;SDS011;4950;46.042;14.472;2023-09-18T06:54:00;17.50;;;10.83;;
9821;SDS011;4950;46.042;14.472;2023-09-18T06:56:27;14.15;;;10.45;;
9821;SDS011;4950;46.042;14.472;2023-09-18T06:58:54;15.75;;;9.63;;
9821;SDS011;4950;46.042;14.472;2023-09-18T07:01:21;14.85;;;9.88;;
9821;SDS011;4950;46.042;14.472;2023-09-18T07:03:49;12.23;;;9.97;;
9821;SDS011;4950;46.042;14.472;2023-09-18T07:06:16;14.35;;;9.75;;
9821;SDS011;4950;46.042;14.472;2023-09-18T07:08:47;15.82;;;11.10;;
9821;SDS011;4950;46.042;14.472;2023-09-18T07:11:16;13.18;;;10.07;;
9821;SDS011;4950;46.042;14.472;2023-09-18T07:13:42;13.05;;;9.43;;
9821;SDS011;4950;46.042;14.472;2023-09-18T07:16:10;17.42;;;9.80;;
9821;SDS011;4950;46.042;14.472;2023-09-18T07:18:37;13.75;;;9.93;;
9821;SDS011;4950;46.042;14.472;2023-09-18T07:21:03;13.07;;;9.80;;
9821;SDS011;4950;46.042;14.472;2023-09-18T07:23:30;12.65;;;9.10;;
9821;SDS011;4950;46.042;14.472;2023-09-18T07:25:58;13.68;;;10.30;;
9821;SDS011;4950;46.042;14.472;2023-09-18T07:28:26;20.90;;;11.73;;
9821;SDS011;4950;46.042;14.472;2023-09-18T07:30:53;13.70;;;9.70;;
9821;SDS011;4950;46.042;14.472;2023-09-18T07:33:19;15.50;;;10.27;;
9821;SDS011;4950;46.042;14.472;2023-09-18T07:35:46;12.35;;;9.45;;
9821;SDS011;4950;46.042;14.472;2023-09-18T07:38:14;15.85;;;10.85;;
9821;SDS011;4950;46.042;14.472;2023-09-18T07:40:41;17.48;;;10.82;;
9821;SDS011;4950;46.042;14.472;2023-09-18T07:43:09;12.88;;;10.45;;
9821;SDS011;4950;46.042;14.472;2023-09-18T07:45:37;14.77;;;10.32;;
9821;SDS011;4950;46.042;14.472;2023-09-18T07:48:05;14.35;;;10.38;;
9821;SDS011;4950;46.042;14.472;2023-09-18T07:50:32;12.95;;;9.50;;
9821;SDS011;4950;46.042;14.472;2023-09-18T07:52:59;15.88;;;10.35;;
9821;SDS011;4950;46.042;14.472;2023-09-18T07:55:26;18.05;;;10.13;;
9821;SDS011;4950;46.042;14.472;2023-09-18T07:57:53;13.90;;;10.23;;
9821;SDS011;4950;46.042;14.472;2023-09-18T08:00:21;14.05;;;9.85;;
9821;SDS011;4950;46.042;14.472;2023-09-18T08:02:48;14.82;;;9.73;;
9821;SDS011;4950;46.042;14.472;2023-09-18T08:05:17;13.10;;;9.32;;
9821;SDS011;4950;46.042;14.472;2023-09-18T08:07:44;13.77;;;9.48;;
9821;SDS011;4950;46.042;14.472;2023-09-18T08:10:13;16.02;;;9.93;;
9821;SDS011;4950;46.042;14.472;2023-09-18T08:12:39;14.07;;;9.43;;
9821;SDS011;4950;46.042;14.472;2023-09-18T08:15:06;12.43;;;9.13;;
9821;SDS011;4950;46.042;14.472;2023-09-18T08:17:36;14.85;;;9.25;;
9821;SDS011;4950;46.042;14.472;2023-09-18T08:20:03;13.43;;;9.88;;
9821;SDS011;4950;46.042;14.472;2023-09-18T08:22:37;19.02;;;10.07;;
9821;SDS011;4950;46.042;14.472;2023-09-18T08:25:05;14.23;;;9.38;;
9821;SDS011;4950;46.042;14.472;2023-09-18T08:27:33;12.07;;;9.43;;
9821;SDS011;4950;46.042;14.472;2023-09-18T08:30:02;17.23;;;9.57;;
9821;SDS011;4950;46.042;14.472;2023-09-18T08:32:30;17.38;;;9.95;;
9821;SDS011;4950;46.042;14.472;2023-09-18T08:37:27;15.05;;;9.35;;
9821;SDS011;4950;46.042;14.472;2023-09-18T08:39:54;15.57;;;8.50;;
9821;SDS011;4950;46.042;14.472;2023-09-18T08:42:21;16.20;;;8.50;;
9821;SDS011;4950;46.042;14.472;2023-09-18T08:44:49;22.15;;;9.20;;
9821;SDS011;4950;46.042;14.472;2023-09-18T08:47:18;14.82;;;8.55;;
9821;SDS011;4950;46.042;14.472;2023-09-18T08:49:45;15.07;;;9.23;;
9821;SDS011;4950;46.042;14.472;2023-09-18T08:52:16;18.52;;;9.00;;
9821;SDS011;4950;46.042;14.472;2023-09-18T08:54:43;12.10;;;7.68;;
9821;SDS011;4950;46.042;14.472;2023-09-18T08:57:12;13.85;;;8.48;;
9821;SDS011;4950;46.042;14.472;2023-09-18T08:59:39;11.95;;;7.82;;
9821;SDS011;4950;46.042;14.472;2023-09-18T09:02:07;13.73;;;7.57;;
9821;SDS011;4950;46.042;14.472;2023-09-18T09:04:36;12.93;;;7.65;;
9821;SDS011;4950;46.042;14.472;2023-09-18T09:07:03;12.65;;;7.70;;
9821;SDS011;4950;46.042;14.472;2023-09-18T09:09:33;15.52;;;8.00;;
9821;SDS011;4950;46.042;14.472;2023-09-18T09:12:00;18.95;;;8.82;;
9821;SDS011;4950;46.042;14.472;2023-09-18T09:14:26;15.38;;;8.60;;
9821;SDS011;4950;46.042;14.472;2023-09-18T09:16:54;14.20;;;7.93;;
9821;SDS011;4950;46.042;14.472;2023-09-18T09:19:28;11.87;;;8.30;;
9821;SDS011;4950;46.042;14.472;2023-09-18T09:21:56;12.63;;;8.43;;
9821;SDS011;4950;46.042;14.472;2023-09-18T09:24:36;14.23;;;8.45;;
9821;SDS011;4950;46.042;14.472;2023-09-18T09:27:04;11.70;;;7.05;;
9821;SDS011;4950;46.042;14.472;2023-09-18T09:29:31;16.63;;;8.60;;
9821;SDS011;4950;46.042;14.472;2023-09-18T09:32:11;16.77;;;9.00;;
9821;SDS011;4950;46.042;14.472;2023-09-18T09:34:40;13.85;;;7.47;;
9821;SDS011;4950;46.042;14.472;2023-09-18T09:37:07;11.48;;;7.32;;
9821;SDS011;4950;46.042;14.472;2023-09-18T09:39:34;12.18;;;8.05;;
9821;SDS011;4950;46.042;14.472;2023-09-18T09:42:14;16.77;;;8.52;;
9821;SDS011;4950;46.042;14.472;2023-09-18T09:44:45;14.98;;;8.40;;
9821;SDS011;4950;46.042;14.472;2023-09-18T09:47:11;14.10;;;8.35;;
9821;SDS011;4950;46.042;14.472;2023-09-18T09:52:17;25.38;;;8.30;;
9821;SDS011;4950;46.042;14.472;2023-09-18T09:54:49;19.13;;;9.00;;
9821;SDS011;4950;46.042;14.472;2023-09-18T09:57:15;16.35;;;8.45;;
9821;SDS011;4950;46.042;14.472;2023-09-18T09:59:42;13.60;;;8.30;;
9821;SDS011;4950;46.042;14.472;2023-09-18T10:02:10;13.43;;;8.80;;
9821;SDS011;4950;46.042;14.472;2023-09-18T10:04:44;12.75;;;8.63;;
9821;SDS011;4950;46.042;14.472;2023-09-18T10:07:13;17.02;;;8.20;;
9821;SDS011;4950;46.042;14.472;2023-09-18T10:09:42;15.00;;;8.77;;
9821;SDS011;4950;46.042;14.472;2023-09-18T10:12:11;13.85;;;7.90;;
9821;SDS011;4950;46.042;14.472;2023-09-18T10:14:41;12.48;;;8.25;;
9821;SDS011;4950;46.042;14.472;2023-09-18T10:17:15;21.92;;;8.27;;
9821;SDS011;4950;46.042;14.472;2023-09-18T10:19:45;13.15;;;8.30;;
9821;SDS011;4950;46.042;14.472;2023-09-18T10:22:22;12.80;;;8.30;;
9821;SDS011;4950;46.042;14.472;2023-09-18T10:24:54;16.67;;;9.13;;
9821;SDS011;4950;46.042;14.472;2023-09-18T10:27:29;17.17;;;8.82;;
9821;SDS011;4950;46.042;14.472;2023-09-18T10:32:24;15.10;;;8.25;;
9821;SDS011;4950;46.042;14.472;2023-09-18T10:34:53;18.15;;;8.68;;
9821;SDS011;4950;46.042;14.472;2023-09-18T10:37:20;21.25;;;9.55;;
9821;SDS011;4950;46.042;14.472;2023-09-18T10:39:48;15.35;;;8.93;;
9821;SDS011;4950;46.042;14.472;2023-09-18T10:42:17;17.15;;;9.63;;
9821;SDS011;4950;46.042;14.472;2023-09-18T10:44:49;15.50;;;8.63;;
9821;SDS011;4950;46.042;14.472;2023-09-18T10:47:15;21.52;;;9.52;;
9821;SDS011;4950;46.042;14.472;2023-09-18T10:49:45;17.95;;;9.40;;
9821;SDS011;4950;46.042;14.472;2023-09-18T10:52:14;12.68;;;8.77;;
9821;SDS011;4950;46.042;14.472;2023-09-18T10:54:41;21.15;;;8.35;;
9821;SDS011;4950;46.042;14.472;2023-09-18T10:57:08;13.15;;;8.77;;
9821;SDS011;4950;46.042;14.472;2023-09-18T10:59:37;18.83;;;8.60;;
9821;SDS011;4950;46.042;14.472;2023-09-18T11:02:13;12.75;;;8.52;;
9821;SDS011;4950;46.042;14.472;2023-09-18T11:04:41;26.00;;;8.65;;
9821;SDS011;4950;46.042;14.472;2023-09-18T11:07:08;15.07;;;8.70;;
9821;SDS011;4950;46.042;14.472;2023-09-18T11:09:42;18.60;;;9.05;;
9821;SDS011;4950;46.042;14.472;2023-09-18T11:12:10;15.95;;;8.43;;
9821;SDS011;4950;46.042;14.472;2023-09-18T11:14:42;18.50;;;8.95;;
9821;SDS011;4950;46.042;14.472;2023-09-18T11:17:34;16.50;;;9.00;;
9821;SDS011;4950;46.042;14.472;2023-09-18T11:20:05;13.23;;;8.40;;
9821;SDS011;4950;46.042;14.472;2023-09-18T11:22:35;14.45;;;8.10;;
9821;SDS011;4950;46.042;14.472;2023-09-18T11:28:13;17.50;;;9.02;;
9821;SDS011;4950;46.042;14.472;2023-09-18T11:30:49;16.23;;;8.70;;
9821;SDS011;4950;46.042;14.472;2023-09-18T11:33:30;15.90;;;8.60;;
9821;SDS011;4950;46.042;14.472;2023-09-18T11:36:04;12.38;;;8.23;;
9821;SDS011;4950;46.042;14.472;2023-09-18T11:38:33;15.80;;;7.85;;
9821;SDS011;4950;46.042;14.472;2023-09-18T11:43:47;18.48;;;8.52;;
9821;SDS011;4950;46.042;14.472;2023-09-18T11:46:17;14.93;;;8.30;;
9821;SDS011;4950;46.042;14.472;2023-09-18T11:48:46;13.18;;;7.72;;
9821;SDS011;4950;46.042;14.472;2023-09-18T11:51:20;14.23;;;7.97;;
9821;SDS011;4950;46.042;14.472;2023-09-18T11:53:49;13.50;;;8.50;;
9821;SDS011;4950;46.042;14.472;2023-09-18T11:56:19;14.43;;;8.57;;
9821;SDS011;4950;46.042;14.472;2023-09-18T11:58:47;16.55;;;8.82;;
9821;SDS011;4950;46.042;14.472;2023-09-18T12:01:14;21.33;;;8.88;;
9821;SDS011;4950;46.042;14.472;2023-09-18T12:03:41;18.83;;;8.98;;
9821;SDS011;4950;46.042;14.472;2023-09-18T12:06:10;14.45;;;7.80;;
9821;SDS011;4950;46.042;14.472;2023-09-18T12:08:38;13.35;;;7.57;;
9821;SDS011;4950;46.042;14.472;2023-09-18T12:11:06;15.00;;;8.00;;
9821;SDS011;4950;46.042;14.472;2023-09-18T12:13:33;15.88;;;7.85;;
9821;SDS011;4950;46.042;14.472;2023-09-18T12:16:00;18.42;;;7.90;;
9821;SDS011;4950;46.042;14.472;2023-09-18T12:18:30;18.52;;;8.23;;
9821;SDS011;4950;46.042;14.472;2023-09-18T12:20:59;14.68;;;8.20;;
9821;SDS011;4950;46.042;14.472;2023-09-18T12:23:37;14.27;;;8.45;;
9821;SDS011;4950;46.042;14.472;2023-09-18T12:26:05;12.60;;;7.60;;
9821;SDS011;4950;46.042;14.472;2023-09-18T12:28:33;21.23;;;8.77;;
9821;SDS011;4950;46.042;14.472;2023-09-18T12:31:01;25.65;;;8.57;;
9821;SDS011;4950;46.042;14.472;2023-09-18T12:33:33;15.13;;;7.95;;
9821;SDS011;4950;46.042;14.472;2023-09-18T12:36:02;16.60;;;8.05;;
9821;SDS011;4950;46.042;14.472;2023-09-18T12:38:30;11.20;;;7.80;;
9821;SDS011;4950;46.042;14.472;2023-09-18T12:40:58;14.20;;;8.05;;
9821;SDS011;4950;46.042;14.472;2023-09-18T12:43:34;16.70;;;7.38;;
9821;SDS011;4950;46.042;14.472;2023-09-18T12:46:02;16.58;;;7.65;;
9821;SDS011;4950;46.042;14.472;2023-09-18T12:48:32;14.38;;;7.25;;
9821;SDS011;4950;46.042;14.472;2023-09-18T12:51:03;15.65;;;7.65;;
9821;SDS011;4950;46.042;14.472;2023-09-18T12:53:30;14.68;;;7.53;;
9821;SDS011;4950;46.042;14.472;2023-09-18T12:56:05;11.00;;;6.88;;
9821;SDS011;4950;46.042;14.472;2023-09-18T12:58:33;14.25;;;7.40;;
9821;SDS011;4950;46.042;14.472;2023-09-18T13:01:03;14.98;;;7.47;;
9821;SDS011;4950;46.042;14.472;2023-09-18T13:03:33;12.00;;;7.18;;
9821;SDS011;4950;46.042;14.472;2023-09-18T13:06:07;14.80;;;6.68;;
9821;SDS011;4950;46.042;14.472;2023-09-18T13:08:37;13.23;;;6.90;;
9821;SDS011;4950;46.042;14.472;2023-09-18T13:11:06;13.77;;;7.05;;
9821;SDS011;4950;46.042;14.472;2023-09-18T13:13:32;13.18;;;7.28;;
9821;SDS011;4950;46.042;14.472;2023-09-18T13:16:00;14.82;;;6.63;;
9821;SDS011;4950;46.042;14.472;2023-09-18T13:18:31;9.93;;;6.70;;
9821;SDS011;4950;46.042;14.472;2023-09-18T13:20:58;16.17;;;6.63;;
9821;SDS011;4950;46.042;14.472;2023-09-18T13:23:28;12.20;;;6.60;;
9821;SDS011;4950;46.042;14.472;2023-09-18T13:25:59;13.73;;;6.40;;
9821;SDS011;4950;46.042;14.472;2023-09-18T13:28:29;13.23;;;6.80;;
9821;SDS011;4950;46.042;14.472;2023-09-18T13:30:58;12.35;;;6.57;;
9821;SDS011;4950;46.042;14.472;2023-09-18T13:33:25;16.85;;;6.68;;
9821;SDS011;4950;46.042;14.472;2023-09-18T13:35:52;13.63;;;6.63;;
9821;SDS011;4950;46.042;14.472;2023-09-18T13:38:21;15.98;;;7.20;;
9821;SDS011;4950;46.042;14.472;2023-09-18T13:40:47;14.32;;;7.28;;
9821;SDS011;4950;46.042;14.472;2023-09-18T13:43:15;15.43;;;6.90;;
9821;SDS011;4950;46.042;14.472;2023-09-18T13:45:45;14.98;;;6.63;;
9821;SDS011;4950;46.042;14.472;2023-09-18T13:48:11;11.90;;;6.32;;
9821;SDS011;4950;46.042;14.472;2023-09-18T13:50:40;14.93;;;6.82;;
9821;SDS011;4950;46.042;14.472;2023-09-18T13:53:07;11.55;;;6.38;;
9821;SDS011;4950;46.042;14.472;2023-09-18T13:55:34;17.83;;;6.60;;
9821;SDS011;4950;46.042;14.472;2023-09-18T13:58:01;8.98;;;6.03;;
9821;SDS011;4950;46.042;14.472;2023-09-18T14:00:29;18.55;;;7.75;;
9821;SDS011;4950;46.042;14.472;2023-09-18T14:02:57;11.77;;;6.78;;
9821;SDS011;4950;46.042;14.472;2023-09-18T14:05:24;16.00;;;6.28;;
9821;SDS011;4950;46.042;14.472;2023-09-18T14:07:52;14.50;;;6.57;;
9821;SDS011;4950;46.042;14.472;2023-09-18T14:10:24;12.05;;;6.70;;
9821;SDS011;4950;46.042;14.472;2023-09-18T14:12:51;12.23;;;6.20;;
9821;SDS011;4950;46.042;14.472;2023-09-18T14:15:18;20.42;;;7.80;;
9821;SDS011;4950;46.042;14.472;2023-09-18T14:17:46;17.00;;;6.72;;
9821;SDS011;4950;46.042;14.472;2023-09-18T14:20:14;11.63;;;5.85;;
9821;SDS011;4950;46.042;14.472;2023-09-18T14:22:43;11.68;;;6.50;;
9821;SDS011;4950;46.042;14.472;2023-09-18T14:25:11;10.57;;;5.65;;
9821;SDS011;4950;46.042;14.472;2023-09-18T14:27:39;18.85;;;5.78;;
9821;SDS011;4950;46.042;14.472;2023-09-18T14:30:06;10.90;;;5.95;;
9821;SDS011;4950;46.042;14.472;2023-09-18T14:32:33;15.17;;;6.63;;
9821;SDS011;4950;46.042;14.472;2023-09-18T14:35:01;14.07;;;6.15;;
9821;SDS011;4950;46.042;14.472;2023-09-18T14:37:29;13.43;;;6.45;;
9821;SDS011;4950;46.042;14.472;2023-09-18T14:39:56;18.27;;;6.43;;
9821;SDS011;4950;46.042;14.472;2023-09-18T14:42:23;11.10;;;6.15;;
9821;SDS011;4950;46.042;14.472;2023-09-18T14:44:50;17.70;;;7.20;;
9821;SDS011;4950;46.042;14.472;2023-09-18T14:47:17;16.58;;;6.78;;
9821;SDS011;4950;46.042;14.472;2023-09-18T14:49:43;17.67;;;6.38;;
9821;SDS011;4950;46.042;14.472;2023-09-18T14:52:11;14.90;;;5.93;;
9821;SDS011;4950;46.042;14.472;2023-09-18T14:54:39;14.43;;;6.60;;
9821;SDS011;4950;46.042;14.472;2023-09-18T14:57:06;18.45;;;6.20;;
9821;SDS011;4950;46.042;14.472;2023-09-18T14:59:33;17.75;;;7.15;;
9821;SDS011;4950;46.042;14.472;2023-09-18T15:02:00;14.73;;;6.95;;
9821;SDS011;4950;46.042;14.472;2023-09-18T15:04:28;14.93;;;6.47;;
9821;SDS011;4950;46.042;14.472;2023-09-18T15:06:55;18.70;;;6.63;;